Terminal Aerodrome Forecast
Issued by NWS Milwaukee/Sullivan, WI

Home | Current Version | Previous Version | Text Only | Print | Product List | Glossary On
Versions: 1 2 3 4 5 6 7 8 9 10 11 12 13 14 15 16 17 18 19 20 21 22 23 24 25 26 27
000
FTUS43 KMKX 230520
TAFMSN
TAF
KMSN 230520Z 2306/2406 01003KT P6SM SCT250
     FM231500 11007KT P6SM BKN120
     FM231800 15005KT P6SM SCT060 OVC100
     FM232100 15007KT P6SM SCT050 BKN070 PROB30 2321/2403 4SM -RA
      OVC050
     FM240300 13007KT 4SM -SHRA SCT035 OVC050=

USA.gov is the U.S. government's official web portal to all federal, state and local government web resources and services.